createdAt,value
2022-08-31T00:02:59.527Z,99821.94
2022-08-31T00:05:46.429Z,99820.81
2022-08-31T00:08:33.218Z,99823.78
2022-08-31T00:11:28.040Z,99820.34
2022-08-31T00:14:14.628Z,99825.91
2022-08-31T00:17:01.057Z,99822.09
2022-08-31T00:19:47.290Z,99830.19
2022-08-31T00:22:33.734Z,99816.13
2022-08-31T00:25:20.195Z,99825.78
2022-08-31T00:28:07.618Z,99827.34
2022-08-31T00:30:53.883Z,99829.50
2022-08-31T00:33:40.637Z,99828.91
2022-08-31T00:36:27.615Z,99826.84
2022-08-31T00:39:14.622Z,99822.03
2022-08-31T00:42:00.910Z,99833.16
2022-08-31T00:44:47.220Z,99833.22
2022-08-31T00:47:33.709Z,99832.41
2022-08-31T00:50:21.672Z,99830.94
2022-08-31T00:53:08.168Z,99836.25
2022-08-31T00:55:54.733Z,99837.41
2022-08-31T00:58:41.571Z,99838.66
2022-08-31T01:01:30.873Z,99836.00
2022-08-31T01:04:17.260Z,99837.97
2022-08-31T01:07:05.186Z,99843.81
2022-08-31T01:09:53.268Z,99840.31
2022-08-31T01:12:44.694Z,99843.16
2022-08-31T01:15:32.220Z,99842.06
2022-08-31T01:18:19.497Z,99841.50
2022-08-31T01:21:37.140Z,99837.12
2022-08-31T01:24:25.375Z,99847.25
2022-08-31T01:27:15.357Z,99843.69
2022-08-31T01:30:03.746Z,99843.97
2022-08-31T01:32:50.022Z,99842.66
2022-08-31T01:35:37.394Z,99855.16
2022-08-31T01:38:24.181Z,99852.69
2022-08-31T01:41:10.648Z,99850.44
2022-08-31T01:43:59.468Z,99842.84
2022-08-31T01:46:48.641Z,99847.00
2022-08-31T01:49:34.865Z,99855.75
2022-08-31T01:52:21.154Z,99850.84
2022-08-31T01:55:10.300Z,99841.69
2022-08-31T01:57:58.150Z,99839.94
2022-08-31T02:00:46.734Z,99848.72
2022-08-31T02:03:33.336Z,99846.59
2022-08-31T02:06:19.770Z,99848.91
2022-08-31T02:09:07.508Z,99849.16
2022-08-31T02:11:55.230Z,99841.94
2022-08-31T02:14:41.694Z,99840.91
2022-08-31T02:17:28.365Z,99845.12
2022-08-31T02:20:16.493Z,99844.44
2022-08-31T02:23:03.552Z,99838.06
2022-08-31T02:25:49.954Z,99831.00
2022-08-31T02:28:37.326Z,99834.00
2022-08-31T02:31:24.503Z,99828.28
2022-08-31T02:34:10.947Z,99824.47
2022-08-31T02:36:57.361Z,99829.03
2022-08-31T02:39:43.658Z,99825.94
2022-08-31T02:42:33.067Z,99836.06
2022-08-31T02:45:38.070Z,99842.06
2022-08-31T02:48:24.692Z,99841.00
2022-08-31T02:51:11.517Z,99833.16
2022-08-31T02:53:57.894Z,99827.78
2022-08-31T02:56:44.259Z,99830.47
2022-08-31T02:59:30.523Z,99824.97
2022-08-31T03:02:17.679Z,99828.81
2022-08-31T03:05:08.852Z,99831.19
2022-08-31T03:07:55.009Z,99829.47
2022-08-31T03:10:41.306Z,99834.28
2022-08-31T03:13:29.869Z,99831.28
2022-08-31T03:16:16.441Z,99833.75
2022-08-31T03:19:02.829Z,99833.50
2022-08-31T03:21:55.955Z,99836.56
2022-08-31T03:24:44.108Z,99835.28
2022-08-31T03:27:30.917Z,99830.47
2022-08-31T03:30:20.397Z,99827.75
2022-08-31T03:33:07.275Z,99829.47
2022-08-31T03:35:53.570Z,99829.88
2022-08-31T03:38:39.934Z,99837.09
2022-08-31T03:41:26.920Z,99844.00
2022-08-31T03:44:14.207Z,99839.38
2022-08-31T03:47:01.646Z,99835.06
2022-08-31T03:49:47.931Z,99833.59
2022-08-31T03:52:34.336Z,99829.06
2022-08-31T03:55:20.615Z,99835.63
2022-08-31T03:58:07.318Z,99831.03
2022-08-31T04:00:54.494Z,99824.56
2022-08-31T04:03:41.659Z,99827.00
2022-08-31T04:06:30.093Z,99829.47
2022-08-31T04:09:39.483Z,99834.25
2022-08-31T04:12:27.602Z,99841.84
2022-08-31T04:15:15.631Z,99838.59
2022-08-31T04:18:04.373Z,99837.19
2022-08-31T04:20:54.650Z,99844.41
2022-08-31T04:23:42.062Z,99839.19
2022-08-31T04:26:34.086Z,99844.62
2022-08-31T04:29:28.555Z,99841.69
2022-08-31T04:32:14.968Z,99842.00
2022-08-31T04:35:01.998Z,99836.47
2022-08-31T04:37:48.978Z,99838.91
2022-08-31T04:40:37.625Z,99832.06
2022-08-31T04:43:25.190Z,99836.56
2022-08-31T04:46:11.956Z,99838.12
2022-08-31T04:48:59.100Z,99837.38
2022-08-31T04:51:45.374Z,99841.16
2022-08-31T04:54:32.379Z,99848.34
2022-08-31T04:57:18.602Z,99848.97
2022-08-31T05:00:05.616Z,99851.31
2022-08-31T05:02:55.759Z,99843.81
2022-08-31T05:05:42.201Z,99845.22
2022-08-31T05:08:28.993Z,99848.06
2022-08-31T05:11:19.846Z,99839.91
2022-08-31T05:14:10.340Z,99843.63
2022-08-31T05:16:57.196Z,99838.78
2022-08-31T05:19:44.040Z,99846.66
2022-08-31T05:22:31.220Z,99846.06
2022-08-31T05:25:17.543Z,99848.50
2022-08-31T05:28:05.186Z,99849.00
2022-08-31T05:30:51.689Z,99850.69
2022-08-31T05:33:39.920Z,99850.94
2022-08-31T05:36:26.426Z,99860.56
2022-08-31T05:39:13.457Z,99858.94
2022-08-31T05:42:00.349Z,99862.66
2022-08-31T05:44:46.799Z,99862.09
2022-08-31T05:47:33.170Z,99856.75
2022-08-31T05:50:19.606Z,99852.84
2022-08-31T05:53:06.566Z,99854.88
2022-08-31T05:56:06.768Z,99854.91
2022-08-31T05:58:53.336Z,99852.62
2022-08-31T06:01:41.495Z,99855.53
2022-08-31T06:04:33.604Z,99858.44
2022-08-31T06:07:20.034Z,99849.37
2022-08-31T06:10:07.569Z,99858.84
2022-08-31T06:12:53.609Z,99862.19
2022-08-31T06:15:42.240Z,99863.75
2022-08-31T06:18:29.979Z,99863.34
2022-08-31T06:21:22.472Z,99863.59
2022-08-31T06:24:10.231Z,99864.19
2022-08-31T06:27:00.093Z,99861.09
2022-08-31T06:29:46.943Z,99867.16
2022-08-31T06:32:33.260Z,99867.19
2022-08-31T06:35:19.606Z,99866.00
2022-08-31T06:38:08.641Z,99863.44
2022-08-31T06:40:55.888Z,99867.78
2022-08-31T06:43:43.669Z,99860.75
2022-08-31T06:46:32.356Z,99863.97
2022-08-31T06:49:19.551Z,99865.19
2022-08-31T06:52:05.957Z,99868.16
2022-08-31T06:54:52.146Z,99870.22
2022-08-31T06:57:39.512Z,99859.94
2022-08-31T07:00:27.562Z,99872.34
2022-08-31T07:03:23.791Z,99882.16
2022-08-31T07:06:17.311Z,99870.00
2022-08-31T07:09:05.366Z,99877.66
2022-08-31T07:11:52.406Z,99888.38
2022-08-31T07:14:38.754Z,99888.03
2022-08-31T07:17:25.897Z,99885.69
2022-08-31T07:20:12.615Z,99881.47
2022-08-31T07:22:59.139Z,99884.75
2022-08-31T07:25:46.011Z,99890.81
2022-08-31T07:28:33.836Z,99891.25
2022-08-31T07:31:23.336Z,99893.25
2022-08-31T07:34:11.212Z,99894.50
2022-08-31T07:37:19.110Z,99886.87
2022-08-31T07:40:25.044Z,99883.28
2022-08-31T07:43:12.454Z,99884.09
2022-08-31T07:45:59.560Z,99885.25
2022-08-31T07:48:45.636Z,99874.41
2022-08-31T07:51:32.167Z,99881.66
2022-08-31T07:54:21.402Z,99879.94
2022-08-31T07:57:07.837Z,99872.03
2022-08-31T07:59:59.155Z,99871.28
2022-08-31T08:02:50.811Z,99872.06
2022-08-31T08:05:41.775Z,99880.03
2022-08-31T08:08:27.799Z,99865.59
2022-08-31T08:11:21.114Z,99871.84
2022-08-31T08:14:12.168Z,99869.53
2022-08-31T08:16:59.026Z,99860.47
2022-08-31T08:19:46.397Z,99864.06
2022-08-31T08:22:51.831Z,99866.66
2022-08-31T08:25:39.258Z,99865.09
2022-08-31T08:28:43.115Z,99861.34
2022-08-31T08:31:29.706Z,99859.59
2022-08-31T08:34:16.011Z,99856.78
2022-08-31T08:37:02.928Z,99859.38
2022-08-31T08:39:49.732Z,99858.69
2022-08-31T08:42:36.122Z,99853.91
2022-08-31T08:45:23.213Z,99860.09
2022-08-31T08:48:11.372Z,99853.72
2022-08-31T08:50:59.564Z,99856.50
2022-08-31T08:53:49.198Z,99854.47
2022-08-31T08:56:42.117Z,99842.53
2022-08-31T08:59:28.833Z,99844.62
2022-08-31T09:02:20.354Z,99844.06
2022-08-31T09:05:13.193Z,99844.97
2022-08-31T09:08:18.118Z,99836.91
2022-08-31T09:11:39.162Z,99837.06
2022-08-31T09:15:11.306Z,99826.81
2022-08-31T09:18:03.241Z,99831.38
2022-08-31T09:21:07.492Z,99824.28
2022-08-31T09:24:11.805Z,99829.56
2022-08-31T09:27:11.390Z,99827.00
2022-08-31T09:30:00.826Z,99815.66
2022-08-31T09:32:57.170Z,99808.31
2022-08-31T09:35:43.763Z,99814.03
2022-08-31T09:38:39.493Z,99804.34
2022-08-31T09:41:28.645Z,99802.41
2022-08-31T09:44:29.509Z,99799.81
2022-08-31T09:47:38.202Z,99799.72
2022-08-31T09:50:47.453Z,99801.44
2022-08-31T09:53:59.560Z,99798.16
2022-08-31T09:56:56.176Z,99806.62
2022-08-31T09:59:47.989Z,99790.13
2022-08-31T10:02:38.127Z,99793.78
2022-08-31T10:05:31.854Z,99783.47
2022-08-31T10:08:46.269Z,99789.50
2022-08-31T10:11:33.167Z,99782.06
2022-08-31T10:14:38.414Z,99776.06
2022-08-31T10:17:32.641Z,99773.37
2022-08-31T10:20:21.958Z,99775.47
2022-08-31T10:23:27.815Z,99769.31
2022-08-31T10:26:19.280Z,99761.50
2022-08-31T10:29:35.384Z,99757.87
2022-08-31T10:32:29.979Z,99755.19
2022-08-31T10:35:22.245Z,99745.44
2022-08-31T10:38:40.903Z,99747.53
2022-08-31T10:41:30.851Z,99746.09
2022-08-31T10:44:26.474Z,99740.34
2022-08-31T10:47:17.861Z,99747.38
2022-08-31T10:50:26.962Z,99741.56
2022-08-31T10:53:47.203Z,99742.34
2022-08-31T10:56:41.315Z,99743.81
2022-08-31T10:59:55.948Z,99725.31
2022-08-31T11:03:16.165Z,99728.75
2022-08-31T11:06:23.507Z,99738.28
2022-08-31T11:09:33.630Z,99728.34
2022-08-31T11:12:30.772Z,99730.00
2022-08-31T11:15:44.084Z,99719.41
2022-08-31T11:19:00.609Z,99709.31
2022-08-31T11:21:58.735Z,99713.78
2022-08-31T11:25:15.152Z,99702.31
2022-08-31T11:28:34.289Z,99700.59
2022-08-31T11:31:27.364Z,99703.94
2022-08-31T11:34:25.756Z,99695.50
2022-08-31T11:37:13.249Z,99698.63
2022-08-31T11:40:10.667Z,99693.94
2022-08-31T11:43:01.149Z,99696.31
2022-08-31T11:45:47.308Z,99687.91
2022-08-31T11:48:53.538Z,99689.81
2022-08-31T11:51:44.903Z,99683.72
2022-08-31T11:54:38.209Z,99687.87
2022-08-31T11:57:26.840Z,99682.19
2022-08-31T12:00:20.510Z,99677.22
2022-08-31T12:03:09.554Z,99677.47
2022-08-31T12:05:57.858Z,99678.69
2022-08-31T12:08:52.345Z,99680.37
2022-08-31T12:11:49.854Z,99678.59
2022-08-31T12:14:56.744Z,99684.41
2022-08-31T12:17:58.169Z,99676.56
2022-08-31T12:21:12.821Z,99676.22
2022-08-31T12:24:25.818Z,99671.66
2022-08-31T12:27:18.279Z,99664.25
2022-08-31T12:30:16.389Z,99661.16
2022-08-31T12:33:08.517Z,99659.94
2022-08-31T12:36:18.177Z,99665.00
2022-08-31T12:39:07.255Z,99663.16
2022-08-31T12:42:03.806Z,99662.16
2022-08-31T12:44:51.791Z,99650.19
2022-08-31T12:48:11.450Z,99653.94
2022-08-31T12:51:31.872Z,99647.75
2022-08-31T12:54:33.682Z,99647.16
2022-08-31T12:57:49.121Z,99646.62
2022-08-31T13:00:39.341Z,99633.56
2022-08-31T13:03:29.220Z,99632.28
2022-08-31T13:06:30.567Z,99632.84
2022-08-31T13:09:35.679Z,99635.09
2022-08-31T13:12:24.737Z,99643.06
2022-08-31T13:15:21.993Z,99639.06
2022-08-31T13:18:14.201Z,99632.25
2022-08-31T13:21:05.715Z,99638.31
2022-08-31T13:23:52.002Z,99639.62
2022-08-31T13:26:38.739Z,99631.81
2022-08-31T13:29:24.708Z,99631.25
2022-08-31T13:32:32.276Z,99626.22
2022-08-31T13:35:21.146Z,99620.94
2022-08-31T13:38:09.083Z,99619.44
2022-08-31T13:40:55.979Z,99625.63
2022-08-31T13:43:47.818Z,99618.16
2022-08-31T13:46:43.632Z,99618.56
2022-08-31T13:49:35.968Z,99612.47
2022-08-31T13:52:26.056Z,99617.41
2022-08-31T13:55:13.622Z,99604.19
2022-08-31T13:58:06.649Z,99602.47
2022-08-31T14:00:58.136Z,99601.91
2022-08-31T14:03:57.485Z,99598.88
2022-08-31T14:06:50.453Z,99603.19
2022-08-31T14:09:44.885Z,99595.78
2022-08-31T14:12:37.212Z,99597.31
2022-08-31T14:15:37.514Z,99595.44
2022-08-31T14:18:31.287Z,99598.19
2022-08-31T14:21:21.844Z,99600.22
2022-08-31T14:24:12.229Z,99596.28
2022-08-31T14:27:00.333Z,99599.44
2022-08-31T14:29:46.404Z,99597.87
2022-08-31T14:32:33.321Z,99594.56
2022-08-31T14:35:22.250Z,99592.97
2022-08-31T14:38:08.551Z,99586.34
2022-08-31T14:40:56.367Z,99590.47
2022-08-31T14:43:44.669Z,99590.59
2022-08-31T14:46:30.855Z,99592.78
2022-08-31T14:49:17.298Z,99592.28
2022-08-31T14:52:04.639Z,99586.75
2022-08-31T14:54:51.275Z,99589.00
2022-08-31T14:57:40.428Z,99583.72
2022-08-31T15:00:29.147Z,99579.63
2022-08-31T15:03:16.302Z,99580.34
2022-08-31T15:06:04.266Z,99584.31
2022-08-31T15:08:52.046Z,99575.88
2022-08-31T15:11:39.972Z,99588.72
2022-08-31T15:14:27.186Z,99584.56
2022-08-31T15:17:19.129Z,99587.88
2022-08-31T15:20:08.135Z,99581.94
2022-08-31T15:22:54.507Z,99578.91
2022-08-31T15:25:40.337Z,99576.41
2022-08-31T15:28:31.024Z,99577.34
2022-08-31T15:31:27.073Z,99571.66
2022-08-31T15:34:19.128Z,99574.50
2022-08-31T15:37:07.124Z,99566.03
2022-08-31T15:39:53.721Z,99576.78
2022-08-31T15:42:42.068Z,99580.75
2022-08-31T15:45:30.866Z,99564.50
2022-08-31T15:48:35.713Z,99570.69
2022-08-31T15:51:27.776Z,99569.56
2022-08-31T15:54:22.149Z,99566.63
2022-08-31T15:57:12.184Z,99565.19
2022-08-31T15:59:58.521Z,99567.81
2022-08-31T16:02:44.966Z,99552.00
2022-08-31T16:05:35.724Z,99561.59
2022-08-31T16:08:28.428Z,99562.53
2022-08-31T16:11:15.089Z,99557.97
2022-08-31T16:14:01.330Z,99561.00
2022-08-31T16:16:49.059Z,99571.38
2022-08-31T16:19:36.935Z,99570.81
2022-08-31T16:22:30.436Z,99568.38
2022-08-31T16:25:17.695Z,99568.81
2022-08-31T16:28:06.942Z,99567.59
2022-08-31T16:30:53.137Z,99564.25
2022-08-31T16:33:41.872Z,99566.09
2022-08-31T16:36:28.476Z,99567.28
2022-08-31T16:39:14.875Z,99571.69
2022-08-31T16:42:01.465Z,99575.38
2022-08-31T16:44:48.176Z,99574.72
2022-08-31T16:47:34.105Z,99570.34
2022-08-31T16:50:20.617Z,99569.75
2022-08-31T16:53:07.027Z,99567.78
2022-08-31T16:55:53.300Z,99573.31
2022-08-31T16:58:51.857Z,99574.97
2022-08-31T17:01:42.377Z,99576.47
2022-08-31T17:04:51.024Z,99577.06
2022-08-31T17:07:35.278Z,99579.88
2022-08-31T17:10:21.531Z,99581.81
2022-08-31T17:13:08.703Z,99579.19
2022-08-31T17:15:54.951Z,99582.19
2022-08-31T17:18:42.388Z,99581.28
2022-08-31T17:21:31.619Z,99581.56
2022-08-31T17:24:24.347Z,99581.81
2022-08-31T17:27:13.550Z,99582.41
2022-08-31T17:30:05.869Z,99581.53
2022-08-31T17:32:51.806Z,99572.75
2022-08-31T17:35:41.645Z,99574.91
2022-08-31T17:38:28.603Z,99592.66
2022-08-31T17:41:15.643Z,99582.59
2022-08-31T17:44:02.008Z,99598.88
2022-08-31T17:46:52.224Z,99603.47
2022-08-31T17:49:42.107Z,99608.75
2022-08-31T17:52:30.878Z,99610.00
2022-08-31T17:55:17.537Z,99605.56
2022-08-31T17:58:05.849Z,99617.59
2022-08-31T18:00:54.682Z,99612.16
2022-08-31T18:03:40.907Z,99626.00
2022-08-31T18:06:28.447Z,99624.41
2022-08-31T18:09:18.332Z,99628.13
2022-08-31T18:12:06.244Z,99631.28
2022-08-31T18:14:53.837Z,99630.75
2022-08-31T18:17:40.574Z,99628.47
2022-08-31T18:20:28.487Z,99620.47
2022-08-31T18:23:16.510Z,99635.03
2022-08-31T18:26:02.828Z,99628.28
2022-08-31T18:28:49.446Z,99632.31
2022-08-31T18:31:38.959Z,99628.91
2022-08-31T18:34:25.836Z,99631.03
2022-08-31T18:37:13.121Z,99643.97
2022-08-31T18:40:18.063Z,99641.81
2022-08-31T18:43:23.972Z,99647.75
2022-08-31T18:46:10.488Z,99641.72
2022-08-31T18:49:01.110Z,99651.25
2022-08-31T18:51:57.607Z,99650.06
2022-08-31T18:54:44.201Z,99637.53
2022-08-31T18:57:33.269Z,99646.62
2022-08-31T19:00:20.096Z,99648.28
2022-08-31T19:03:06.701Z,99649.22
2022-08-31T19:05:53.158Z,99655.84
2022-08-31T19:08:39.287Z,99658.59
2022-08-31T19:11:25.614Z,99663.09
2022-08-31T19:14:12.514Z,99667.31
2022-08-31T19:17:01.255Z,99664.53
2022-08-31T19:19:50.823Z,99663.81
2022-08-31T19:22:37.654Z,99662.03
2022-08-31T19:25:24.419Z,99660.25
2022-08-31T19:28:11.283Z,99654.56
2022-08-31T19:30:57.454Z,99662.62
2022-08-31T19:33:46.667Z,99670.91
2022-08-31T19:36:33.590Z,99670.19
2022-08-31T19:39:23.040Z,99676.25
2022-08-31T19:42:09.642Z,99660.91
2022-08-31T19:45:22.848Z,99673.56
2022-08-31T19:48:02.466Z,99673.59
2022-08-31T19:50:50.197Z,99664.22
2022-08-31T19:53:38.963Z,99672.75
2022-08-31T19:56:31.547Z,99672.59
2022-08-31T19:59:21.123Z,99668.69
2022-08-31T20:02:08.848Z,99682.38
2022-08-31T20:04:55.155Z,99683.91
2022-08-31T20:07:42.032Z,99689.44
2022-08-31T20:10:29.972Z,99689.25
2022-08-31T20:13:16.429Z,99686.88
2022-08-31T20:16:05.651Z,99689.28
2022-08-31T20:18:53.228Z,99697.66
2022-08-31T20:21:42.044Z,99694.47
2022-08-31T20:24:28.791Z,99688.06
2022-08-31T20:27:18.686Z,99688.50
2022-08-31T20:30:05.683Z,99684.03
2022-08-31T20:32:51.944Z,99687.28
2022-08-31T20:35:47.737Z,99684.81
2022-08-31T20:38:41.197Z,99687.72
2022-08-31T20:41:31.238Z,99677.69
2022-08-31T20:44:22.486Z,99685.31
2022-08-31T20:47:29.289Z,99688.09
2022-08-31T20:50:15.698Z,99687.69
2022-08-31T20:53:01.822Z,99690.50
2022-08-31T20:55:48.833Z,99686.47
2022-08-31T20:58:35.339Z,99685.69
2022-08-31T21:01:25.096Z,99698.44
2022-08-31T21:04:11.577Z,99696.09
2022-08-31T21:06:59.610Z,99698.06
2022-08-31T21:09:46.336Z,99697.69
2022-08-31T21:12:32.888Z,99701.28
2022-08-31T21:15:19.298Z,99700.09
2022-08-31T21:18:05.581Z,99702.88
2022-08-31T21:20:52.168Z,99705.56
2022-08-31T21:23:38.677Z,99699.62
2022-08-31T21:26:27.415Z,99704.06
2022-08-31T21:29:17.729Z,99700.41
2022-08-31T21:32:08.533Z,99695.50
2022-08-31T21:34:56.353Z,99702.19
2022-08-31T21:37:42.717Z,99701.53
2022-08-31T21:40:31.190Z,99705.59
2022-08-31T21:43:17.326Z,99699.41
2022-08-31T21:46:06.234Z,99695.81
2022-08-31T21:48:54.954Z,99701.69
2022-08-31T21:51:53.927Z,99706.00
2022-08-31T21:54:44.851Z,99693.75
2022-08-31T21:57:31.770Z,99698.38
2022-08-31T22:00:22.203Z,99700.66
2022-08-31T22:03:09.001Z,99696.06
2022-08-31T22:05:54.946Z,99701.16
2022-08-31T22:08:41.578Z,99695.56
2022-08-31T22:11:30.522Z,99686.41
2022-08-31T22:14:20.015Z,99688.13
2022-08-31T22:17:06.907Z,99687.50
2022-08-31T22:19:53.380Z,99700.31
2022-08-31T22:22:39.820Z,99701.69
2022-08-31T22:25:26.264Z,99701.78
2022-08-31T22:28:12.999Z,99708.91
2022-08-31T22:31:00.940Z,99701.81
2022-08-31T22:33:49.698Z,99707.34
2022-08-31T22:36:36.559Z,99709.94
2022-08-31T22:39:28.154Z,99720.50
2022-08-31T22:42:15.205Z,99721.16
2022-08-31T22:45:01.997Z,99731.25
2022-08-31T22:47:50.189Z,99734.72
2022-08-31T22:50:36.536Z,99736.09
2022-08-31T22:53:22.913Z,99746.34
2022-08-31T22:56:25.924Z,99742.84
2022-08-31T22:59:15.524Z,99756.16
2022-08-31T23:02:03.850Z,99766.19
2022-08-31T23:04:50.331Z,99776.09
2022-08-31T23:07:36.354Z,99782.41
2022-08-31T23:10:24.149Z,99784.69
2022-08-31T23:13:10.455Z,99789.38
2022-08-31T23:15:58.423Z,99797.63
2022-08-31T23:18:49.302Z,99796.81
2022-08-31T23:21:35.801Z,99801.78
2022-08-31T23:24:26.750Z,99798.94
2022-08-31T23:27:15.550Z,99801.50
2022-08-31T23:30:01.865Z,99795.81
2022-08-31T23:32:48.490Z,99798.25
2022-08-31T23:35:34.695Z,99795.06
2022-08-31T23:38:21.039Z,99788.69
2022-08-31T23:41:07.150Z,99795.56
2022-08-31T23:44:02.547Z,99781.56
2022-08-31T23:46:49.332Z,99781.16
2022-08-31T23:49:35.894Z,99781.34
2022-08-31T23:52:25.784Z,99791.16
2022-08-31T23:55:12.123Z,99791.19
2022-08-31T23:57:59.331Z,99788.84
